Time;durP1;ratioP1;P1;durP2;ratioP2;P2;SDS_P1;SDS_P2;PMS_P1;PMS_P2;Temp;Humidity;BMP_temperature;BMP_pressure;BME280_temperature;BME280_humidity;BME280_pressure;Samples;Min_cycle;Max_cycle;Signal;HPM_P1;HPM_P2
2022/03/26 00:01:45;;;;;;;0.00;0.00;;;;;;;;;;5067114;28;20040;-74
2022/03/26 00:04:16;;;;;;;0.00;0.00;;;;;;;;;;5066949;28;20040;-74
2022/03/26 00:06:45;;;;;;;0.08;0.05;;;;;;;;;;5066588;28;20064;-74
2022/03/26 00:09:16;;;;;;;0.00;0.00;;;;;;;;;;5067137;28;20056;-75
2022/03/26 00:11:49;;;;;;;0.00;0.00;;;;;;;;;;5066873;28;20051;-75
2022/03/26 00:14:21;;;;;;;0.00;0.00;;;;;;;;;;5066119;28;20048;-76
2022/03/26 00:17:00;;;;;;;0.00;0.00;;;;;;;;;;5066900;28;20040;-75
2022/03/26 00:19:36;;;;;;;0.00;0.00;;;;;;;;;;5062142;28;20041;-75
2022/03/26 00:22:06;;;;;;;0.00;0.00;;;;;;;;;;5046375;28;20400;-76
2022/03/26 00:24:37;;;;;;;0.00;0.00;;;;;;;;;;5047288;28;20048;-76
2022/03/26 00:27:08;;;;;;;0.00;0.00;;;;;;;;;;5046691;28;20697;-75
2022/03/26 00:29:38;;;;;;;0.00;0.00;;;;;;;;;;5044766;28;20053;-76
2022/03/26 00:32:09;;;;;;;0.00;0.00;;;;;;;;;;5046710;28;20044;-76
2022/03/26 00:34:39;;;;;;;0.00;0.00;;;;;;;;;;5046873;28;20416;-76
2022/03/26 00:37:13;;;;;;;0.00;0.00;;;;;;;;;;5045943;28;20076;-75
2022/03/26 00:39:53;;;;;;;0.00;0.00;;;;;;;;;;5045276;28;20607;-75
2022/03/26 00:42:24;;;;;;;0.00;0.00;;;;;;;;;;5045297;28;20087;-76
2022/03/26 00:44:54;;;;;;;0.00;0.00;;;;;;;;;;5046516;28;20055;-75
2022/03/26 00:47:24;;;;;;;0.05;0.05;;;;;;;;;;5046358;28;20048;-76
2022/03/26 00:49:54;;;;;;;0.00;0.00;;;;;;;;;;5045992;28;20420;-75
2022/03/26 00:52:24;;;;;;;0.00;0.00;;;;;;;;;;5045817;28;20575;-75
2022/03/26 00:54:54;;;;;;;0.00;0.00;;;;;;;;;;5044765;28;20045;-76
2022/03/26 00:57:24;;;;;;;0.00;0.00;;;;;;;;;;5046436;28;20055;-75
2022/03/26 00:59:54;;;;;;;0.00;0.00;;;;;;;;;;5046257;28;20045;-76
2022/03/26 01:02:25;;;;;;;2.17;2.05;;;;;;;;;;5045412;28;20060;-77
2022/03/26 01:04:55;;;;;;;0.00;0.00;;;;;;;;;;5045755;28;20049;-76
2022/03/26 01:07:26;;;;;;;0.00;0.00;;;;;;;;;;5046452;28;20053;-75
2022/03/26 01:09:57;;;;;;;0.05;0.05;;;;;;;;;;5045763;28;20056;-75
2022/03/26 01:12:27;;;;;;;0.00;0.00;;;;;;;;;;5050114;28;20045;-75
2022/03/26 01:14:57;;;;;;;0.00;0.00;;;;;;;;;;5050192;28;20045;-75
2022/03/26 01:17:27;;;;;;;0.00;0.00;;;;;;;;;;5049933;28;20512;-76
2022/03/26 01:19:59;;;;;;;0.00;0.00;;;;;;;;;;5050109;28;20522;-75
2022/03/26 01:22:29;;;;;;;0.00;0.00;;;;;;;;;;5049905;28;20052;-75
2022/03/26 01:24:59;;;;;;;0.40;0.17;;;;;;;;;;5050126;28;20052;-76
2022/03/26 01:27:29;;;;;;;0.00;0.00;;;;;;;;;;5049319;28;20049;-76
2022/03/26 01:29:59;;;;;;;0.00;0.00;;;;;;;;;;5049946;28;20412;-76
2022/03/26 01:32:29;;;;;;;0.00;0.00;;;;;;;;;;5049657;28;20049;-76
2022/03/26 01:34:59;;;;;;;0.20;0.20;;;;;;;;;;5049950;28;20081;-75
2022/03/26 01:37:29;;;;;;;0.00;0.00;;;;;;;;;;5050531;28;20523;-76
2022/03/26 01:39:59;;;;;;;0.00;0.00;;;;;;;;;;5050017;28;20060;-76
2022/03/26 01:42:29;;;;;;;0.00;0.00;;;;;;;;;;5049695;28;20045;-75
2022/03/26 01:44:59;;;;;;;0.00;0.00;;;;;;;;;;5049475;28;20053;-74
2022/03/26 01:47:31;;;;;;;0.00;0.00;;;;;;;;;;5049754;28;20123;-76
2022/03/26 01:50:03;;;;;;;0.28;0.10;;;;;;;;;;5049863;28;20045;-76
2022/03/26 01:52:33;;;;;;;0.00;0.00;;;;;;;;;;5047589;28;20617;-75
2022/03/26 01:55:04;;;;;;;0.00;0.00;;;;;;;;;;5045450;28;20079;-76
2022/03/26 01:57:34;;;;;;;0.00;0.00;;;;;;;;;;5045696;28;20044;-75
2022/03/26 02:00:07;;;;;;;0.00;0.00;;;;;;;;;;5045743;28;20053;-76
2022/03/26 02:02:45;;;;;;;0.00;0.00;;;;;;;;;;5050135;28;20052;-75
2022/03/26 02:05:18;;;;;;;0.00;0.00;;;;;;;;;;5049066;28;20405;-75
2022/03/26 02:07:50;;;;;;;0.00;0.00;;;;;;;;;;5048732;28;20830;-77
2022/03/26 02:10:21;;;;;;;0.00;0.00;;;;;;;;;;5047672;28;20489;-77
2022/03/26 02:12:51;;;;;;;0.00;0.00;;;;;;;;;;5046673;28;20843;-76
2022/03/26 02:15:21;;;;;;;0.00;0.00;;;;;;;;;;5048438;28;20053;-76
2022/03/26 02:17:50;;;;;;;0.00;0.00;;;;;;;;;;5049234;28;21128;-76
2022/03/26 02:20:22;;;;;;;0.00;0.00;;;;;;;;;;5048713;28;20534;-76
2022/03/26 02:22:53;;;;;;;0.00;0.00;;;;;;;;;;5048775;28;20041;-77
2022/03/26 02:25:23;;;;;;;0.00;0.00;;;;;;;;;;5048475;28;20068;-76
2022/03/26 02:27:53;;;;;;;0.00;0.00;;;;;;;;;;5047853;28;20484;-76
2022/03/26 02:30:23;;;;;;;0.00;0.00;;;;;;;;;;5048852;28;20072;-76
2022/03/26 02:32:53;;;;;;;0.00;0.00;;;;;;;;;;5048274;28;20512;-76
2022/03/26 02:35:23;;;;;;;0.00;0.00;;;;;;;;;;5047514;28;20059;-77
2022/03/26 02:37:53;;;;;;;0.00;0.00;;;;;;;;;;5048865;28;20049;-77
2022/03/26 02:40:23;;;;;;;0.00;0.00;;;;;;;;;;5046910;28;20049;-76
2022/03/26 02:42:53;;;;;;;0.00;0.00;;;;;;;;;;5046362;28;20063;-77
2022/03/26 02:45:23;;;;;;;0.00;0.00;;;;;;;;;;5046619;28;20041;-76
2022/03/26 02:47:53;;;;;;;0.00;0.00;;;;;;;;;;5048215;28;20056;-77
2022/03/26 02:50:23;;;;;;;0.00;0.00;;;;;;;;;;5048681;28;20060;-76
2022/03/26 02:52:53;;;;;;;0.00;0.00;;;;;;;;;;5047971;28;20041;-75
2022/03/26 02:55:23;;;;;;;0.00;0.00;;;;;;;;;;5048751;28;20053;-76
2022/03/26 02:57:53;;;;;;;0.00;0.00;;;;;;;;;;5048157;28;20040;-75
2022/03/26 03:00:22;;;;;;;0.00;0.00;;;;;;;;;;5048146;28;20052;-77
2022/03/26 03:02:52;;;;;;;0.00;0.00;;;;;;;;;;5047492;28;20048;-75
2022/03/26 03:05:23;;;;;;;0.00;0.00;;;;;;;;;;5048020;28;20053;-76
2022/03/26 03:07:53;;;;;;;0.00;0.00;;;;;;;;;;5048329;28;20053;-76
2022/03/26 03:10:24;;;;;;;0.00;0.00;;;;;;;;;;5047376;28;20423;-75
2022/03/26 03:12:55;;;;;;;0.00;0.00;;;;;;;;;;5047908;28;20072;-76
2022/03/26 03:15:25;;;;;;;0.00;0.00;;;;;;;;;;5048599;28;20056;-76
2022/03/26 03:17:55;;;;;;;0.00;0.00;;;;;;;;;;5047215;28;20424;-75
2022/03/26 03:20:25;;;;;;;0.00;0.00;;;;;;;;;;5047977;28;20056;-77
2022/03/26 03:22:57;;;;;;;0.00;0.00;;;;;;;;;;5047593;28;20435;-75
2022/03/26 03:25:29;;;;;;;;;;;;;;;;;;5048290;28;20408;-74
2022/03/26 03:27:59;;;;;;;0.00;0.00;;;;;;;;;;5047748;28;19925;-77
2022/03/26 03:30:29;;;;;;;0.00;0.00;;;;;;;;;;5047405;28;20060;-76
2022/03/26 03:32:59;;;;;;;0.00;0.00;;;;;;;;;;5047406;28;20049;-76
2022/03/26 03:35:29;;;;;;;0.00;0.00;;;;;;;;;;5047837;28;20526;-75
2022/03/26 03:37:59;;;;;;;0.00;0.00;;;;;;;;;;5047303;28;20053;-75
2022/03/26 03:40:28;;;;;;;0.00;0.00;;;;;;;;;;5047689;28;20044;-75
2022/03/26 03:42:58;;;;;;;0.00;0.00;;;;;;;;;;5047359;28;20053;-77
2022/03/26 03:45:34;;;;;;;0.00;0.00;;;;;;;;;;5047131;28;20041;-75
2022/03/26 03:48:04;;;;;;;0.00;0.00;;;;;;;;;;5047872;28;20754;-75
2022/03/26 03:50:34;;;;;;;0.00;0.00;;;;;;;;;;5047057;28;20056;-76
2022/03/26 03:53:04;;;;;;;0.00;0.00;;;;;;;;;;5047017;28;20060;-76
2022/03/26 03:55:34;;;;;;;0.00;0.00;;;;;;;;;;5029549;28;20056;-76
2022/03/26 03:58:04;;;;;;;0.00;0.00;;;;;;;;;;5047141;28;20048;-74
2022/03/26 04:00:34;;;;;;;0.00;0.00;;;;;;;;;;5046842;28;20049;-74
2022/03/26 04:03:04;;;;;;;0.00;0.00;;;;;;;;;;5047613;28;20076;-75
2022/03/26 04:05:35;;;;;;;0.00;0.00;;;;;;;;;;5046759;28;20049;-76
2022/03/26 04:08:05;;;;;;;0.00;0.00;;;;;;;;;;5046707;28;20531;-77
2022/03/26 04:10:35;;;;;;;0.00;0.00;;;;;;;;;;5046117;28;20353;-76
2022/03/26 04:13:05;;;;;;;0.00;0.00;;;;;;;;;;5046705;28;20037;-75
2022/03/26 04:15:35;;;;;;;0.00;0.00;;;;;;;;;;5045584;28;20059;-74
2022/03/26 04:18:06;;;;;;;0.00;0.00;;;;;;;;;;5046591;28;20116;-75
2022/03/26 04:20:37;;;;;;;0.00;0.00;;;;;;;;;;5046755;28;20419;-74
2022/03/26 04:23:08;;;;;;;0.00;0.00;;;;;;;;;;5046613;28;20500;-76
2022/03/26 04:25:38;;;;;;;0.00;0.00;;;;;;;;;;5046705;28;20052;-75
2022/03/26 04:28:08;;;;;;;0.00;0.00;;;;;;;;;;5047284;28;20508;-75
2022/03/26 04:30:38;;;;;;;0.00;0.00;;;;;;;;;;5046602;28;20052;-76
2022/03/26 04:33:08;;;;;;;0.00;0.00;;;;;;;;;;5046584;28;20056;-74
2022/03/26 04:35:38;;;;;;;0.00;0.00;;;;;;;;;;5046398;28;20054;-76
2022/03/26 04:38:08;;;;;;;0.00;0.00;;;;;;;;;;5046667;28;20068;-73
2022/03/26 04:40:38;;;;;;;0.00;0.00;;;;;;;;;;5046435;28;20053;-76
2022/03/26 04:43:07;;;;;;;0.00;0.00;;;;;;;;;;5046087;28;20427;-77
2022/03/26 04:45:38;;;;;;;0.00;0.00;;;;;;;;;;5046369;28;20045;-75
2022/03/26 04:48:08;;;;;;;0.00;0.00;;;;;;;;;;5046350;28;20515;-75
2022/03/26 04:50:37;;;;;;;0.00;0.00;;;;;;;;;;5045397;28;20051;-75
2022/03/26 04:53:09;;;;;;;0.00;0.00;;;;;;;;;;5046681;28;20533;-76
2022/03/26 04:55:39;;;;;;;0.00;0.00;;;;;;;;;;5047225;28;20036;-75
2022/03/26 04:58:09;;;;;;;0.00;0.00;;;;;;;;;;5046571;28;20072;-75
2022/03/26 05:00:40;;;;;;;0.00;0.00;;;;;;;;;;5046336;28;20659;-74
2022/03/26 05:03:10;;;;;;;;;;;;;;;;;;5046910;28;20053;-77
2022/03/26 05:05:41;;;;;;;0.00;0.00;;;;;;;;;;5045868;28;19925;-76
2022/03/26 05:08:11;;;;;;;0.00;0.00;;;;;;;;;;5046081;28;20068;-76
2022/03/26 05:10:41;;;;;;;0.00;0.00;;;;;;;;;;5046166;28;20052;-76
2022/03/26 05:13:11;;;;;;;0.00;0.00;;;;;;;;;;5046334;28;20049;-74
2022/03/26 05:15:41;;;;;;;0.00;0.00;;;;;;;;;;5046061;28;20053;-76
2022/03/26 05:18:11;;;;;;;0.00;0.00;;;;;;;;;;5046267;28;20519;-76
2022/03/26 05:20:41;;;;;;;0.00;0.00;;;;;;;;;;5046585;28;20037;-75
2022/03/26 05:23:10;;;;;;;0.00;0.00;;;;;;;;;;5044880;28;20485;-76
2022/03/26 05:25:40;;;;;;;0.00;0.00;;;;;;;;;;5045866;28;20041;-74
2022/03/26 05:28:10;;;;;;;0.00;0.00;;;;;;;;;;5046053;28;20052;-75
2022/03/26 05:30:40;;;;;;;0.00;0.00;;;;;;;;;;5046322;28;20496;-75
2022/03/26 05:33:10;;;;;;;0.00;0.00;;;;;;;;;;5045376;28;20416;-76
2022/03/26 05:35:40;;;;;;;0.00;0.00;;;;;;;;;;5046109;28;20052;-75
2022/03/26 05:38:10;;;;;;;0.00;0.00;;;;;;;;;;5046581;28;20049;-76
2022/03/26 05:40:40;;;;;;;0.00;0.00;;;;;;;;;;5046290;28;20420;-74
2022/03/26 05:43:10;;;;;;;0.00;0.00;;;;;;;;;;5045831;28;20056;-76
2022/03/26 05:45:40;;;;;;;0.00;0.00;;;;;;;;;;5045910;28;20040;-75
2022/03/26 05:48:09;;;;;;;0.00;0.00;;;;;;;;;;5045544;28;20501;-74
2022/03/26 05:50:39;;;;;;;0.00;0.00;;;;;;;;;;5045835;28;20045;-75
2022/03/26 05:53:09;;;;;;;0.00;0.00;;;;;;;;;;5046147;28;20053;-76
2022/03/26 05:55:39;;;;;;;0.00;0.00;;;;;;;;;;5046097;28;20044;-75
2022/03/26 05:58:10;;;;;;;0.00;0.00;;;;;;;;;;5048890;28;20051;-75
2022/03/26 06:00:40;;;;;;;0.00;0.00;;;;;;;;;;5049691;28;20056;-76
2022/03/26 06:03:10;;;;;;;0.00;0.00;;;;;;;;;;5050053;28;20040;-75
2022/03/26 06:05:40;;;;;;;0.00;0.00;;;;;;;;;;5049215;28;20045;-75
2022/03/26 06:08:10;;;;;;;0.00;0.00;;;;;;;;;;5049333;28;20048;-74
2022/03/26 06:10:40;;;;;;;0.00;0.00;;;;;;;;;;5049124;28;20049;-74
2022/03/26 06:13:10;;;;;;;0.00;0.00;;;;;;;;;;5048945;28;20492;-74
2022/03/26 06:15:41;;;;;;;0.00;0.00;;;;;;;;;;5048666;28;20049;-75
2022/03/26 06:18:13;;;;;;;0.00;0.00;;;;;;;;;;5049093;28;20049;-75
2022/03/26 06:20:44;;;;;;;0.00;0.00;;;;;;;;;;5048853;28;20072;-75
2022/03/26 06:23:14;;;;;;;0.00;0.00;;;;;;;;;;5048455;28;20628;-76
2022/03/26 06:25:44;;;;;;;0.00;0.00;;;;;;;;;;5049078;28;20067;-75
2022/03/26 06:28:19;;;;;;;0.00;0.00;;;;;;;;;;5049354;28;20045;-74
2022/03/26 06:30:49;;;;;;;0.00;0.00;;;;;;;;;;5049072;28;20053;-75
2022/03/26 06:33:19;;;;;;;0.00;0.00;;;;;;;;;;5048869;28;20500;-76
2022/03/26 06:35:50;;;;;;;0.00;0.00;;;;;;;;;;5048667;28;20496;-75
2022/03/26 06:38:20;;;;;;;0.00;0.00;;;;;;;;;;5048506;28;20063;-76
2022/03/26 06:40:50;;;;;;;0.00;0.00;;;;;;;;;;5049030;28;20041;-75
2022/03/26 06:43:20;;;;;;;0.00;0.00;;;;;;;;;;5048421;28;20044;-75
2022/03/26 06:45:50;;;;;;;0.00;0.00;;;;;;;;;;5048175;28;20055;-76
2022/03/26 06:48:19;;;;;;;0.00;0.00;;;;;;;;;;5048485;28;20049;-75
2022/03/26 06:50:49;;;;;;;0.00;0.00;;;;;;;;;;5047521;28;20526;-77
2022/03/26 06:53:20;;;;;;;0.00;0.00;;;;;;;;;;5048879;28;20041;-75
2022/03/26 06:55:50;;;;;;;0.00;0.00;;;;;;;;;;5048569;28;20059;-75
2022/03/26 06:58:20;;;;;;;0.00;0.00;;;;;;;;;;5048072;28;20053;-76
2022/03/26 07:00:50;;;;;;;0.00;0.00;;;;;;;;;;5046732;28;20052;-77
2022/03/26 07:03:20;;;;;;;0.00;0.00;;;;;;;;;;5047854;28;20048;-75
2022/03/26 07:05:50;;;;;;;0.00;0.00;;;;;;;;;;5047668;28;20988;-75
2022/03/26 07:08:20;;;;;;;0.00;0.00;;;;;;;;;;5047015;28;20053;-77
2022/03/26 07:10:50;;;;;;;0.00;0.00;;;;;;;;;;5047512;28;20052;-77
2022/03/26 07:13:20;;;;;;;0.00;0.00;;;;;;;;;;5047755;28;20049;-76
2022/03/26 07:15:49;;;;;;;0.00;0.00;;;;;;;;;;5048856;28;20044;-76
2022/03/26 07:18:19;;;;;;;0.00;0.00;;;;;;;;;;5047893;28;20045;-76
2022/03/26 07:20:51;;;;;;;0.00;0.00;;;;;;;;;;5047467;28;20048;-77
2022/03/26 07:23:22;;;;;;;0.00;0.00;;;;;;;;;;5047992;28;20542;-74
2022/03/26 07:25:51;;;;;;;0.00;0.00;;;;;;;;;;5048104;28;20045;-76
2022/03/26 07:28:22;;;;;;;0.00;0.00;;;;;;;;;;5047085;28;20497;-76
2022/03/26 07:30:52;;;;;;;0.00;0.00;;;;;;;;;;5047682;28;20060;-75
2022/03/26 07:33:22;;;;;;;0.00;0.00;;;;;;;;;;5047665;28;20056;-77
2022/03/26 07:35:52;;;;;;;0.00;0.00;;;;;;;;;;5047996;28;20432;-77
2022/03/26 07:38:21;;;;;;;0.00;0.00;;;;;;;;;;5047488;28;20052;-73
2022/03/26 07:40:53;;;;;;;0.00;0.00;;;;;;;;;;5047653;28;20040;-73
2022/03/26 07:43:23;;;;;;;0.00;0.00;;;;;;;;;;5047193;28;20052;-74
2022/03/26 07:45:53;;;;;;;34.38;2.17;;;;;;;;;;5047700;28;20049;-76
2022/03/26 07:48:24;;;;;;;0.10;0.10;;;;;;;;;;5047311;28;20420;-76
2022/03/26 07:50:54;;;;;;;0.00;0.00;;;;;;;;;;5046979;28;20045;-76
2022/03/26 07:53:27;;;;;;;0.00;0.00;;;;;;;;;;5047630;28;20053;-73
2022/03/26 07:55:58;;;;;;;0.00;0.00;;;;;;;;;;5047234;28;20052;-74
2022/03/26 07:58:28;;;;;;;0.00;0.00;;;;;;;;;;5046064;28;20052;-75
2022/03/26 08:14:20;;;;;;;0.00;0.00;;;;;;;;;;5145686;27;20419;-75
2022/03/26 08:16:50;;;;;;;0.00;0.00;;;;;;;;;;5124440;28;20050;-76
2022/03/26 08:19:20;;;;;;;0.15;0.15;;;;;;;;;;5124238;28;20671;-75
2022/03/26 08:21:50;;;;;;;0.20;0.20;;;;;;;;;;5124938;28;20406;-74
2022/03/26 08:24:20;;;;;;;0.00;0.00;;;;;;;;;;5124886;28;20047;-75
2022/03/26 08:26:50;;;;;;;0.00;0.00;;;;;;;;;;5124062;28;20039;-75
2022/03/26 08:29:20;;;;;;;0.00;0.00;;;;;;;;;;5124665;28;20047;-75
2022/03/26 08:44:35;;;;;;;0.00;0.00;;;;;;;;;;5145599;27;20214;-75
2022/03/26 08:47:06;;;;;;;0.00;0.00;;;;;;;;;;5124172;28;20043;-75
2022/03/26 08:49:36;;;;;;;0.00;0.00;;;;;;;;;;5124162;28;20408;-75
2022/03/26 08:52:06;;;;;;;0.00;0.00;;;;;;;;;;5124018;28;20058;-76
2022/03/26 08:54:36;;;;;;;0.00;0.00;;;;;;;;;;5124545;28;20055;-75
2022/03/26 08:57:06;;;;;;;0.00;0.00;;;;;;;;;;5124429;28;20040;-74
2022/03/26 08:59:36;;;;;;;0.00;0.00;;;;;;;;;;5124430;28;20058;-75
2022/03/26 09:14:34;;;;;;;0.00;0.00;;;;;;;;;;5124429;27;20483;-77
2022/03/26 09:17:05;;;;;;;0.00;0.00;;;;;;;;;;5124593;28;20040;-75
2022/03/26 09:19:34;;;;;;;0.00;0.00;;;;;;;;;;5124508;27;20058;-76
2022/03/26 09:22:05;;;;;;;0.00;0.00;;;;;;;;;;5123892;27;20158;-76
2022/03/26 09:24:35;;;;;;;0.00;0.00;;;;;;;;;;5123183;28;20220;-76
2022/03/26 09:27:05;;;;;;;0.00;0.00;;;;;;;;;;5124514;28;20058;-77
2022/03/26 09:29:35;;;;;;;0.00;0.00;;;;;;;;;;5124401;28;20039;-75
2022/03/26 09:32:05;;;;;;;0.00;0.00;;;;;;;;;;5124514;27;20048;-77
2022/03/26 09:34:35;;;;;;;0.00;0.00;;;;;;;;;;5123688;27;20055;-74
2022/03/26 09:37:05;;;;;;;0.00;0.00;;;;;;;;;;5124070;27;20047;-76
2022/03/26 09:39:35;;;;;;;0.00;0.00;;;;;;;;;;5124140;28;20166;-76
2022/03/26 09:42:05;;;;;;;0.00;0.00;;;;;;;;;;5123701;28;20059;-77
2022/03/26 09:44:36;;;;;;;0.00;0.00;;;;;;;;;;5124132;28;20054;-75
2022/03/26 09:47:08;;;;;;;0.00;0.00;;;;;;;;;;5123523;27;20054;-76
2022/03/26 09:49:39;;;;;;;0.00;0.00;;;;;;;;;;5124241;28;20044;-77
2022/03/26 09:52:09;;;;;;;0.00;0.00;;;;;;;;;;5124385;28;20417;-75
2022/03/26 09:54:39;;;;;;;0.00;0.00;;;;;;;;;;5123652;27;20058;-78
2022/03/26 09:57:09;;;;;;;0.00;0.00;;;;;;;;;;5123289;28;20047;-76
2022/03/26 09:59:39;;;;;;;0.00;0.00;;;;;;;;;;5123744;27;20046;-77
2022/03/26 10:02:10;;;;;;;0.00;0.00;;;;;;;;;;5123421;27;20035;-75
2022/03/26 10:04:41;;;;;;;0.00;0.00;;;;;;;;;;5123621;28;20524;-76
2022/03/26 10:07:12;;;;;;;0.00;0.00;;;;;;;;;;5123290;27;20100;-75
2022/03/26 10:09:46;;;;;;;0.00;0.00;;;;;;;;;;5117209;27;20493;-75
2022/03/26 10:12:18;;;;;;;0.00;0.00;;;;;;;;;;5122561;27;20043;-76
2022/03/26 10:15:00;;;;;;;0.00;0.00;;;;;;;;;;5112203;28;20047;-76
2022/03/26 10:17:36;;;;;;;0.00;0.00;;;;;;;;;;5109702;28;20051;-74
2022/03/26 10:20:12;;;;;;;0.00;0.00;;;;;;;;;;5110168;28;20418;-76
2022/03/26 10:22:50;;;;;;;0.00;0.00;;;;;;;;;;5110120;28;20571;-78
2022/03/26 10:25:22;;;;;;;0.00;0.00;;;;;;;;;;5109178;28;20039;-74
2022/03/26 10:27:56;;;;;;;0.00;0.00;;;;;;;;;;5108598;28;20048;-75
2022/03/26 10:33:25;;;;;;;0.00;0.00;;;;;;;;;;5109191;28;20047;-76
2022/03/26 10:35:56;;;;;;;0.10;0.05;;;;;;;;;;5091198;28;20047;-77
2022/03/26 10:38:30;;;;;;;0.00;0.00;;;;;;;;;;5108380;28;20043;-77
2022/03/26 10:41:07;;;;;;;0.00;0.00;;;;;;;;;;5108030;28;20077;-76
2022/03/26 10:43:41;;;;;;;0.00;0.00;;;;;;;;;;5109406;28;20058;-76
2022/03/26 10:46:11;;;;;;;0.00;0.00;;;;;;;;;;5110024;28;20371;-76
2022/03/26 10:48:43;;;;;;;0.00;0.00;;;;;;;;;;5107496;28;20044;-76
2022/03/26 10:51:15;;;;;;;0.00;0.00;;;;;;;;;;5108183;28;20047;-76
2022/03/26 10:53:47;;;;;;;0.00;0.00;;;;;;;;;;5109000;28;20052;-76
2022/03/26 10:56:18;;;;;;;0.00;0.00;;;;;;;;;;5108372;28;20106;-77
2022/03/26 10:58:48;;;;;;;0.00;0.00;;;;;;;;;;5107895;28;20058;-75
2022/03/26 11:01:19;;;;;;;0.00;0.00;;;;;;;;;;5108706;28;20051;-77
2022/03/26 11:03:50;;;;;;;0.00;0.00;;;;;;;;;;5107104;28;20426;-76
2022/03/26 11:06:24;;;;;;;0.00;0.00;;;;;;;;;;5108647;28;20040;-77
2022/03/26 11:09:01;;;;;;;0.00;0.00;;;;;;;;;;5109438;28;20043;-75
2022/03/26 11:11:32;;;;;;;0.00;0.00;;;;;;;;;;5108386;28;20036;-77
2022/03/26 11:14:07;;;;;;;0.00;0.00;;;;;;;;;;5109509;28;20524;-78
2022/03/26 11:16:40;;;;;;;0.00;0.00;;;;;;;;;;5108277;28;20061;-76
2022/03/26 11:19:35;;;;;;;0.00;0.00;;;;;;;;;;5108642;28;20379;-75
2022/03/26 11:22:41;;;;;;;0.00;0.00;;;;;;;;;;5108180;28;20044;-76
2022/03/26 11:25:36;;;;;;;0.00;0.00;;;;;;;;;;5095459;28;20063;-76
2022/03/26 11:28:23;;;;;;;0.00;0.00;;;;;;;;;;5108315;28;20040;-75
2022/03/26 11:31:16;;;;;;;0.00;0.00;;;;;;;;;;5108366;28;20359;-76
2022/03/26 11:33:49;;;;;;;0.00;0.00;;;;;;;;;;5107915;28;20521;-75
2022/03/26 11:36:28;;;;;;;0.00;0.00;;;;;;;;;;5106654;28;20078;-76
2022/03/26 11:39:10;;;;;;;0.00;0.00;;;;;;;;;;5108750;28;20043;-76
2022/03/26 11:41:41;;;;;;;0.20;0.20;;;;;;;;;;5107973;28;20050;-76
2022/03/26 11:44:12;;;;;;;;;;;;;;;;;;5108353;28;20044;-75
2022/03/26 11:52:44;;;;;;;0.00;0.00;;;;;;;;;;5084889;28;20056;-77
2022/03/26 11:55:17;;;;;;;0.00;0.00;;;;;;;;;;5100671;28;20051;-75
2022/03/26 11:57:47;;;;;;;0.03;0.03;;;;;;;;;;5106954;28;20050;-76
2022/03/26 12:00:20;;;;;;;0.00;0.00;;;;;;;;;;5107240;28;20043;-75
2022/03/26 12:02:53;;;;;;;0.45;0.30;;;;;;;;;;5112369;28;20062;-76
2022/03/26 12:08:16;;;;;;;0.00;0.00;;;;;;;;;;5133943;28;20044;-76
2022/03/26 12:10:47;;;;;;;0.00;0.00;;;;;;;;;;5134062;28;20031;-75
2022/03/26 12:13:22;;;;;;;0.00;0.00;;;;;;;;;;5132919;28;20058;-76
2022/03/26 12:16:01;;;;;;;0.00;0.00;;;;;;;;;;5133154;28;20034;-75
2022/03/26 12:18:33;;;;;;;0.00;0.00;;;;;;;;;;5123716;28;20498;-75
2022/03/26 12:21:18;;;;;;;0.00;0.00;;;;;;;;;;5106853;28;20046;-77
2022/03/26 12:23:49;;;;;;;0.00;0.00;;;;;;;;;;5106182;28;20394;-76
2022/03/26 12:26:21;;;;;;;0.00;0.00;;;;;;;;;;5107489;28;20050;-76
2022/03/26 12:28:51;;;;;;;0.00;0.00;;;;;;;;;;5107975;28;20040;-74
2022/03/26 12:31:24;;;;;;;0.00;0.00;;;;;;;;;;5109457;28;20043;-76
2022/03/26 12:33:55;;;;;;;0.00;0.00;;;;;;;;;;5107567;28;20044;-76
2022/03/26 12:36:25;;;;;;;0.00;0.00;;;;;;;;;;5108450;28;20047;-75
2022/03/26 12:38:57;;;;;;;0.00;0.00;;;;;;;;;;5107244;28;20513;-75
2022/03/26 12:41:30;;;;;;;0.00;0.00;;;;;;;;;;5106893;28;20293;-74
2022/03/26 12:44:02;;;;;;;0.00;0.00;;;;;;;;;;5106594;28;20070;-75
2022/03/26 12:46:34;;;;;;;0.00;0.00;;;;;;;;;;5106474;28;20044;-75
2022/03/26 12:49:18;;;;;;;0.20;0.20;;;;;;;;;;5106370;28;20050;-77
2022/03/26 12:51:53;;;;;;;0.05;0.05;;;;;;;;;;5106479;28;20043;-76
2022/03/26 12:54:28;;;;;;;0.00;0.00;;;;;;;;;;5106078;28;20058;-75
2022/03/26 12:57:01;;;;;;;0.35;0.35;;;;;;;;;;5106048;28;20107;-77
2022/03/26 12:59:32;;;;;;;0.28;0.28;;;;;;;;;;5105973;28;20047;-75
2022/03/26 13:02:02;;;;;;;;;;;;;;;;;;5106369;28;20059;-76
2022/03/26 13:04:37;;;;;;;0.00;0.00;;;;;;;;;;5106469;28;19920;-75
2022/03/26 13:07:08;;;;;;;0.00;0.00;;;;;;;;;;5106592;28;20126;-76
2022/03/26 13:09:37;;;;;;;0.08;0.08;;;;;;;;;;5106064;28;20425;-75
2022/03/26 13:12:08;;;;;;;0.00;0.00;;;;;;;;;;5105971;28;20055;-75
2022/03/26 13:14:46;;;;;;;4.53;0.80;;;;;;;;;;5106971;28;20444;-78
2022/03/26 13:17:25;;;;;;;1.20;0.55;;;;;;;;;;5104980;27;20948;-75
2022/03/26 13:19:59;;;;;;;0.00;0.00;;;;;;;;;;5104922;28;20048;-77
2022/03/26 13:22:29;;;;;;;0.00;0.00;;;;;;;;;;5104277;28;20055;-76
2022/03/26 13:25:04;;;;;;;0.00;0.00;;;;;;;;;;5103839;28;20048;-79
2022/03/26 13:27:34;;;;;;;0.25;0.25;;;;;;;;;;5104327;28;20054;-76
2022/03/26 13:30:10;;;;;;;0.10;0.10;;;;;;;;;;5104723;28;20398;-79
2022/03/26 13:32:44;;;;;;;0.00;0.00;;;;;;;;;;5105152;28;20040;-79
2022/03/26 13:35:15;;;;;;;0.45;0.30;;;;;;;;;;5104857;28;20048;-77
2022/03/26 13:37:46;;;;;;;0.00;0.00;;;;;;;;;;5104483;28;20387;-77
2022/03/26 13:40:32;;;;;;;0.00;0.00;;;;;;;;;;5103106;28;20047;-78
2022/03/26 13:43:03;;;;;;;0.00;0.00;;;;;;;;;;5103777;28;20054;-78
2022/03/26 13:45:35;;;;;;;0.30;0.30;;;;;;;;;;5103113;28;20052;-80
2022/03/26 13:48:06;;;;;;;0.10;0.00;;;;;;;;;;5103687;28;20040;-81
2022/03/26 13:50:36;;;;;;;0.00;0.00;;;;;;;;;;5102313;28;20051;-79
2022/03/26 13:53:20;;;;;;;0.00;0.00;;;;;;;;;;5103957;28;20048;-76
2022/03/26 13:55:52;;;;;;;0.00;0.00;;;;;;;;;;5103302;28;20044;-76
2022/03/26 13:58:23;;;;;;;0.00;0.00;;;;;;;;;;5102849;28;20040;-77
2022/03/26 14:00:55;;;;;;;0.00;0.00;;;;;;;;;;5104048;28;20422;-79
2022/03/26 14:03:25;;;;;;;0.00;0.00;;;;;;;;;;5104035;28;20047;-78
2022/03/26 14:05:56;;;;;;;0.00;0.00;;;;;;;;;;5103157;28;20040;-80
2022/03/26 14:08:26;;;;;;;0.65;0.65;;;;;;;;;;5103295;28;20043;-74
2022/03/26 14:10:55;;;;;;;0.05;0.05;;;;;;;;;;5103183;28;20047;-78
2022/03/26 14:13:27;;;;;;;2.80;0.40;;;;;;;;;;5101877;28;20051;-77
2022/03/26 14:15:58;;;;;;;0.00;0.00;;;;;;;;;;5102168;28;20048;-79
2022/03/26 14:18:29;;;;;;;0.00;0.00;;;;;;;;;;5103268;28;20040;-79
2022/03/26 14:20:59;;;;;;;0.08;0.08;;;;;;;;;;5102513;28;20087;-80
2022/03/26 14:23:29;;;;;;;0.00;0.00;;;;;;;;;;5102808;28;20387;-79
2022/03/26 14:25:59;;;;;;;0.00;0.00;;;;;;;;;;5103447;28;20046;-77
2022/03/26 14:28:28;;;;;;;1.55;0.30;;;;;;;;;;5090754;28;20040;-80
2022/03/26 14:30:58;;;;;;;0.00;0.00;;;;;;;;;;5089449;28;20067;-77
2022/03/26 14:33:28;;;;;;;0.05;0.05;;;;;;;;;;5089192;28;20040;-76
2022/03/26 14:35:58;;;;;;;0.82;0.45;;;;;;;;;;5088530;28;20048;-80
2022/03/26 14:38:28;;;;;;;0.00;0.00;;;;;;;;;;5088882;28;20055;-77
2022/03/26 14:45:53;;;;;;;0.08;0.08;;;;;;;;;;5166437;27;20213;-82
2022/03/26 14:48:24;;;;;;;0.00;0.00;;;;;;;;;;5144739;27;20051;-77
2022/03/26 14:50:54;;;;;;;0.13;0.10;;;;;;;;;;5144973;27;20035;-79
2022/03/26 14:53:24;;;;;;;0.20;0.10;;;;;;;;;;5125630;27;20046;-80
2022/03/26 14:55:55;;;;;;;1.17;0.90;;;;;;;;;;5145009;27;20047;-79
2022/03/26 14:58:24;;;;;;;0.00;0.00;;;;;;;;;;5145869;27;20053;-80
2022/03/26 15:00:54;;;;;;;0.00;0.00;;;;;;;;;;5145828;27;20401;-81
2022/03/26 15:03:24;;;;;;;0.00;0.00;;;;;;;;;;5116233;28;20047;-78
2022/03/26 15:05:55;;;;;;;0.00;0.00;;;;;;;;;;5124428;28;20074;-78
2022/03/26 15:08:25;;;;;;;0.10;0.10;;;;;;;;;;5125340;28;20386;-76
2022/03/26 15:10:56;;;;;;;0.20;0.20;;;;;;;;;;5125483;28;20050;-80
2022/03/26 15:13:26;;;;;;;0.00;0.00;;;;;;;;;;5125101;28;20578;-80
2022/03/26 15:15:56;;;;;;;0.17;0.10;;;;;;;;;;5125122;28;20051;-79
2022/03/26 15:18:28;;;;;;;0.05;0.05;;;;;;;;;;5123541;28;20066;-80
2022/03/26 15:20:58;;;;;;;0.00;0.00;;;;;;;;;;5121927;28;20066;-78
2022/03/26 15:23:28;;;;;;;0.70;0.63;;;;;;;;;;5125168;28;20043;-79
2022/03/26 15:25:58;;;;;;;0.00;0.00;;;;;;;;;;5105054;28;20056;-80
2022/03/26 15:28:28;;;;;;;0.30;0.30;;;;;;;;;;5124722;28;20047;-80
2022/03/26 15:30:58;;;;;;;0.00;0.00;;;;;;;;;;5123863;28;20047;-76
2022/03/26 15:33:28;;;;;;;0.00;0.00;;;;;;;;;;5124606;28;20047;-77
2022/03/26 15:35:58;;;;;;;0.00;0.00;;;;;;;;;;5124461;28;20047;-81
2022/03/26 15:38:28;;;;;;;0.00;0.00;;;;;;;;;;5124074;28;20417;-78
2022/03/26 15:40:58;;;;;;;0.47;0.38;;;;;;;;;;5124419;28;20050;-77
2022/03/26 15:43:28;;;;;;;0.00;0.00;;;;;;;;;;5125219;28;20429;-79
2022/03/26 15:45:59;;;;;;;0.00;0.00;;;;;;;;;;5125686;28;20051;-79
2022/03/26 15:48:30;;;;;;;0.00;0.00;;;;;;;;;;5123296;28;20066;-77
2022/03/26 15:51:00;;;;;;;0.00;0.00;;;;;;;;;;5124470;28;20047;-80
2022/03/26 15:53:30;;;;;;;0.20;0.05;;;;;;;;;;5124839;28;20031;-78
2022/03/26 15:56:00;;;;;;;0.30;0.30;;;;;;;;;;5117108;28;20043;-79
2022/03/26 15:58:30;;;;;;;0.00;0.00;;;;;;;;;;5110752;28;20516;-77
2022/03/26 16:01:00;;;;;;;0.00;0.00;;;;;;;;;;5111116;28;20047;-78
2022/03/26 16:03:30;;;;;;;0.20;0.20;;;;;;;;;;5110335;28;20051;-79